Time;durP1;ratioP1;P1;durP2;ratioP2;P2;SDS_P1;SDS_P2;PMS_P1;PMS_P2;Temp;Humidity;BMP_temperature;BMP_pressure;BME280_temperature;BME280_humidity;BME280_pressure;Samples;Min_cycle;Max_cycle;Signal;HPM_P1;HPM_P2
2023/06/13 00:02:10;;;;;;;10.68;6.80;;;14.40;99.90;;;;;;4956059;28;20283;-82
2023/06/13 00:04:45;;;;;;;15.73;6.43;;;14.50;99.90;;;;;;4956270;28;20196;-83
2023/06/13 00:07:16;;;;;;;11.68;7.00;;;14.50;99.90;;;;;;4956063;28;20197;-83
2023/06/13 00:09:50;;;;;;;12.70;7.03;;;14.60;99.90;;;;;;4955862;28;20582;-80
2023/06/13 00:12:21;;;;;;;9.70;6.40;;;14.70;99.90;;;;;;4956060;28;20605;-80
2023/06/13 00:14:55;;;;;;;9.73;6.05;;;14.80;99.90;;;;;;4955572;28;20203;-80
2023/06/13 00:17:26;;;;;;;9.27;6.25;;;14.90;99.90;;;;;;4955885;28;20193;-82
2023/06/13 00:19:59;;;;;;;11.07;7.00;;;15.00;99.90;;;;;;4955895;28;20221;-80
2023/06/13 00:22:31;;;;;;;16.65;6.32;;;15.20;99.90;;;;;;4955920;28;20645;-83
2023/06/13 00:25:04;;;;;;;10.73;6.65;;;15.30;99.90;;;;;;4956238;28;20208;-80
2023/06/13 00:27:35;;;;;;;9.85;6.00;;;15.50;99.90;;;;;;4955880;28;20566;-82
2023/06/13 00:30:09;;;;;;;7.97;5.70;;;15.70;99.90;;;;;;4955777;28;20208;-83
2023/06/13 00:32:40;;;;;;;10.05;5.70;;;15.80;99.90;;;;;;4955779;28;20189;-84
2023/06/13 00:35:12;;;;;;;9.45;4.75;;;15.90;99.90;;;;;;4955856;28;20244;-80
2023/06/13 00:37:44;;;;;;;7.68;4.20;;;16.10;99.90;;;;;;4955493;28;20204;-80
2023/06/13 00:40:18;;;;;;;7.65;3.80;;;16.20;99.90;;;;;;4955519;28;20232;-83
2023/06/13 00:42:49;;;;;;;8.00;4.03;;;16.30;99.90;;;;;;4955565;28;20675;-80
2023/06/13 00:45:24;;;;;;;6.82;3.95;;;16.30;99.90;;;;;;4955874;28;20204;-84
2023/06/13 00:47:57;;;;;;;6.47;2.83;;;16.40;99.90;;;;;;4955849;28;20196;-84
2023/06/13 00:50:31;;;;;;;4.53;2.70;;;16.60;99.90;;;;;;4955533;28;20252;-84
2023/06/13 00:53:03;;;;;;;8.77;2.55;;;16.60;99.90;;;;;;4955244;28;20192;-81
2023/06/13 00:55:36;;;;;;;6.03;2.75;;;16.80;99.90;;;;;;4955433;28;20203;-82
2023/06/13 00:58:10;;;;;;;3.03;2.25;;;17.00;99.90;;;;;;4955442;28;20197;-82
2023/06/13 01:00:43;;;;;;;4.78;2.30;;;17.10;99.90;;;;;;4955463;28;20196;-82
2023/06/13 01:03:17;;;;;;;4.63;2.20;;;17.20;99.90;;;;;;4955248;28;20232;-83
2023/06/13 01:05:48;;;;;;;3.95;1.83;;;17.40;99.90;;;;;;4955330;28;20197;-81
2023/06/13 01:08:22;;;;;;;2.70;1.30;;;17.60;99.90;;;;;;4955347;28;20193;-83
2023/06/13 01:11:02;;;;;;;2.03;1.42;;;17.80;99.90;;;;;;4955237;28;20213;-79
2023/06/13 01:13:40;;;;;;;1.70;1.15;;;17.90;99.90;;;;;;4955186;28;20196;-80
2023/06/13 01:16:22;;;;;;;2.42;1.10;;;17.90;99.90;;;;;;4955279;28;20193;-83
2023/06/13 01:18:54;;;;;;;1.90;1.23;;;18.00;99.90;;;;;;4959413;28;20225;-82
2023/06/13 01:21:29;;;;;;;3.63;1.10;;;18.00;99.90;;;;;;4955063;28;20207;-81
2023/06/13 01:24:06;;;;;;;0.93;0.82;;;18.00;99.90;;;;;;4955288;28;20196;-80
2023/06/13 01:26:50;;;;;;;1.13;0.90;;;18.10;99.90;;;;;;4956050;28;20199;-80
2023/06/13 01:29:23;;;;;;;0.80;0.80;;;18.00;99.90;;;;;;4959464;28;20197;-81
2023/06/13 01:31:57;;;;;;;1.70;1.00;;;18.10;99.90;;;;;;4959053;28;20189;-80
2023/06/13 01:34:29;;;;;;;1.50;1.02;;;18.00;99.90;;;;;;4959038;28;20204;-87
2023/06/13 01:37:00;;;;;;;1.35;1.00;;;18.10;99.90;;;;;;4958922;28;20196;-81
2023/06/13 01:39:31;;;;;;;1.58;1.00;;;18.10;99.90;;;;;;4959129;28;20224;-80
2023/06/13 01:42:04;;;;;;;0.88;0.80;;;18.10;99.90;;;;;;4958793;28;20219;-77
2023/06/13 01:44:36;;;;;;;1.75;0.90;;;18.10;99.90;;;;;;4958948;28;20193;-79
2023/06/13 01:47:15;;;;;;;1.02;0.93;;;18.10;99.90;;;;;;4958684;28;20202;-81
2023/06/13 01:49:52;;;;;;;1.23;0.93;;;18.10;99.90;;;;;;4958467;28;20199;-80
2023/06/13 01:52:34;;;;;;;1.58;0.93;;;18.20;99.90;;;;;;4959067;28;20201;-85
2023/06/13 01:55:09;;;;;;;1.00;0.90;;;18.30;99.90;;;;;;4957765;29;20193;-82
2023/06/13 01:57:46;;;;;;;1.65;1.08;;;18.40;99.90;;;;;;4958734;28;20239;-84
2023/06/13 02:00:20;;;;;;;2.42;0.77;;;18.40;99.90;;;;;;4958402;28;20251;-80
2023/06/13 02:02:52;;;;;;;1.17;0.93;;;18.40;99.90;;;;;;4958408;28;20323;-83
2023/06/13 02:05:23;;;;;;;1.35;0.90;;;18.60;99.90;;;;;;4958243;28;20229;-78
2023/06/13 02:07:56;;;;;;;1.23;0.90;;;18.70;99.90;;;;;;4958373;28;20189;-81
2023/06/13 02:10:27;;;;;;;1.48;1.00;;;18.70;99.90;;;;;;4958302;28;20197;-79
2023/06/13 02:13:01;;;;;;;1.90;0.80;;;18.70;99.90;;;;;;4959479;28;20193;-84
2023/06/13 02:15:32;;;;;;;3.40;0.95;;;18.60;99.90;;;;;;4963637;28;20199;-84
2023/06/13 02:18:03;;;;;;;1.30;0.73;;;18.60;99.90;;;;;;4960123;28;20223;-79
2023/06/13 02:20:35;;;;;;;0.70;0.70;;;18.80;99.90;;;;;;4957898;28;20237;-79
2023/06/13 02:23:06;;;;;;;0.80;0.70;;;19.00;99.90;;;;;;4958013;28;20644;-90
2023/06/13 02:25:37;;;;;;;1.35;0.70;;;19.20;99.90;;;;;;4958114;28;20193;-79
2023/06/13 02:28:10;;;;;;;1.70;0.70;;;19.40;99.90;;;;;;4957234;28;20279;-81
2023/06/13 02:30:41;;;;;;;0.93;0.60;;;19.50;99.90;;;;;;4958027;28;20566;-83
2023/06/13 02:33:13;;;;;;;0.95;0.60;;;19.70;99.90;;;;;;4957637;28;20201;-90
2023/06/13 02:35:45;;;;;;;3.15;0.70;;;19.70;99.90;;;;;;4957886;28;20215;-84
2023/06/13 02:38:16;;;;;;;0.80;0.50;;;19.80;99.90;;;;;;4957021;28;20635;-77
2023/06/13 02:40:47;;;;;;;4.10;0.50;;;19.90;99.90;;;;;;4957776;28;20221;-80
2023/06/13 02:43:20;;;;;;;1.33;0.60;;;19.90;99.90;;;;;;4957904;28;20732;-78
2023/06/13 02:45:52;;;;;;;1.50;0.68;;;19.90;99.90;;;;;;4958032;28;20197;-83
2023/06/13 02:48:25;;;;;;;0.70;0.60;;;19.90;99.90;;;;;;4957416;28;20193;-75
2023/06/13 02:50:57;;;;;;;1.45;0.60;;;20.00;99.90;;;;;;4957622;28;20201;-78
2023/06/13 02:53:28;;;;;;;1.85;0.60;;;20.00;99.90;;;;;;4957634;28;20274;-79
2023/06/13 02:55:59;;;;;;;1.42;0.57;;;20.10;99.90;;;;;;4957972;28;20194;-82
2023/06/13 02:58:32;;;;;;;0.73;0.68;;;20.10;99.90;;;;;;4957596;28;20602;-81
2023/06/13 03:01:04;;;;;;;1.02;0.70;;;20.20;99.90;;;;;;4957051;28;20241;-80
2023/06/13 03:03:37;;;;;;;0.90;0.57;;;20.20;99.90;;;;;;4957280;28;20197;-80
2023/06/13 03:06:08;;;;;;;1.27;0.60;;;20.30;99.90;;;;;;4957480;28;20197;-78
2023/06/13 03:08:39;;;;;;;2.65;0.70;;;20.30;99.90;;;;;;4958145;28;20201;-82
2023/06/13 03:11:12;;;;;;;0.70;0.70;;;20.30;99.90;;;;;;4965292;28;20196;-86
2023/06/13 03:13:45;;;;;;;0.98;0.70;;;20.30;99.90;;;;;;4957476;28;20197;-82
2023/06/13 03:16:18;;;;;;;6.70;2.13;;;20.30;99.90;;;;;;4957206;28;20193;-82
2023/06/13 03:18:50;;;;;;;1.48;0.85;;;20.30;99.90;;;;;;4957279;28;20197;-81
2023/06/13 03:21:21;;;;;;;0.68;0.60;;;20.30;99.90;;;;;;4957011;28;20221;-81
2023/06/13 03:23:52;;;;;;;2.35;0.60;;;20.30;99.90;;;;;;4957056;28;20193;-83
2023/06/13 03:26:25;;;;;;;2.28;0.75;;;20.30;99.90;;;;;;4956910;28;20197;-81
2023/06/13 03:28:59;;;;;;;1.20;0.60;;;20.30;99.90;;;;;;4957472;28;20209;-82
2023/06/13 03:31:30;;;;;;;0.90;0.50;;;20.30;99.90;;;;;;4956547;28;20200;-81
2023/06/13 03:34:01;;;;;;;1.17;0.70;;;20.30;99.90;;;;;;4956933;28;20300;-83
2023/06/13 03:36:33;;;;;;;1.23;0.60;;;20.40;99.90;;;;;;4956768;28;20197;-83
2023/06/13 03:39:04;;;;;;;1.15;0.57;;;20.40;99.90;;;;;;4956679;28;20193;-82
2023/06/13 03:41:35;;;;;;;2.15;0.50;;;20.40;99.90;;;;;;4956633;28;20641;-83
2023/06/13 03:44:08;;;;;;;2.13;0.60;;;20.50;99.90;;;;;;4956550;28;20196;-83
2023/06/13 03:46:40;;;;;;;1.42;0.70;;;20.40;99.90;;;;;;4956518;28;20238;-82
2023/06/13 03:49:11;;;;;;;2.92;0.80;;;20.50;99.90;;;;;;4956549;28;20189;-81
2023/06/13 03:51:42;;;;;;;0.82;0.77;;;20.50;99.90;;;;;;4956397;28;20197;-79
2023/06/13 03:54:13;;;;;;;3.33;0.80;;;20.50;99.90;;;;;;4956334;28;20208;-77
2023/06/13 03:56:44;;;;;;;0.63;0.63;;;20.50;99.90;;;;;;4956633;28;20193;-78
2023/06/13 03:59:18;;;;;;;1.40;1.30;;;20.50;99.90;;;;;;4955766;28;20211;-80
2023/06/13 04:01:50;;;;;;;2.08;0.80;;;20.40;99.90;;;;;;4955751;28;20244;-81
2023/06/13 04:04:21;;;;;;;5.60;1.10;;;20.40;99.90;;;;;;4956166;28;20560;-80
2023/06/13 04:06:52;;;;;;;1.55;0.82;;;20.40;99.90;;;;;;4956307;28;20201;-81
2023/06/13 04:09:24;;;;;;;3.90;0.68;;;20.40;99.90;;;;;;4956007;28;20211;-81
2023/06/13 04:11:55;;;;;;;2.60;0.85;;;20.50;99.90;;;;;;4955971;28;20216;-79
2023/06/13 04:14:28;;;;;;;1.45;0.50;;;20.50;99.90;;;;;;4956436;29;20197;-84
2023/06/13 04:16:59;;;;;;;1.10;0.70;;;20.50;99.90;;;;;;4956430;28;20200;-78
2023/06/13 04:19:31;;;;;;;1.90;0.80;;;20.60;99.90;;;;;;4955898;28;20668;-80
2023/06/13 04:22:05;;;;;;;3.92;1.45;;;20.60;99.90;;;;;;4955897;28;20193;-81
2023/06/13 04:24:36;;;;;;;0.63;0.63;;;20.50;99.90;;;;;;4955868;28;20205;-84
2023/06/13 04:27:08;;;;;;;1.95;0.52;;;20.50;99.90;;;;;;4956066;28;20649;-80
2023/06/13 04:29:43;;;;;;;1.77;0.70;;;20.50;99.90;;;;;;4955714;28;20668;-80
2023/06/13 04:32:17;;;;;;;2.58;0.93;;;20.40;99.90;;;;;;4955731;28;20203;-80
2023/06/13 04:34:52;;;;;;;3.45;1.20;;;20.40;99.90;;;;;;4955955;28;20209;-84
2023/06/13 04:37:25;;;;;;;3.65;0.90;;;20.40;99.90;;;;;;4955699;28;20607;-81
2023/06/13 04:39:57;;;;;;;0.90;0.70;;;20.40;99.90;;;;;;4955550;28;20217;-82
2023/06/13 04:42:29;;;;;;;0.50;0.50;;;20.40;99.90;;;;;;4955475;28;20196;-78
2023/06/13 04:45:03;;;;;;;0.80;0.80;;;20.40;99.90;;;;;;4955352;28;20193;-80
2023/06/13 04:47:34;;;;;;;1.05;0.60;;;20.40;99.90;;;;;;4955566;28;20197;-79
2023/06/13 04:50:05;;;;;;;2.58;0.90;;;20.30;99.90;;;;;;4955644;28;20389;-78
2023/06/13 04:52:40;;;;;;;0.95;0.60;;;20.30;99.90;;;;;;4955528;28;20215;-78
2023/06/13 04:55:13;;;;;;;2.65;0.70;;;20.20;99.90;;;;;;4955438;28;20232;-80
2023/06/13 04:57:44;;;;;;;0.63;0.63;;;20.20;99.90;;;;;;4955466;28;20232;-82
2023/06/13 05:00:18;;;;;;;0.63;0.60;;;20.20;99.90;;;;;;4955410;28;20224;-78
2023/06/13 05:02:50;;;;;;;1.15;0.60;;;20.20;99.90;;;;;;4955302;28;20251;-83
2023/06/13 05:05:22;;;;;;;1.40;0.70;;;20.20;99.90;;;;;;4955307;28;20193;-79
2023/06/13 05:07:57;;;;;;;1.73;0.57;;;20.10;99.90;;;;;;4955213;28;20571;-82
2023/06/13 05:10:30;;;;;;;0.60;0.60;;;20.10;99.90;;;;;;4955173;28;20200;-81
2023/06/13 05:13:01;;;;;;;1.50;0.60;;;20.10;99.90;;;;;;4955090;28;20193;-79
2023/06/13 05:15:38;;;;;;;1.40;0.50;;;20.10;99.90;;;;;;4955210;28;20655;-78
2023/06/13 05:18:12;;;;;;;1.80;0.80;;;20.10;99.90;;;;;;4955214;28;20255;-81
2023/06/13 05:20:43;;;;;;;0.98;0.60;;;20.10;99.90;;;;;;4955043;28;20623;-81
2023/06/13 05:23:15;;;;;;;0.68;0.60;;;20.00;99.90;;;;;;4955249;28;20197;-80
2023/06/13 05:25:46;;;;;;;0.60;0.57;;;20.00;99.90;;;;;;4955138;28;20197;-79
2023/06/13 05:28:18;;;;;;;1.65;0.68;;;20.00;99.90;;;;;;4954938;28;20193;-81
2023/06/13 05:30:51;;;;;;;0.60;0.60;;;20.00;99.90;;;;;;4955024;28;20663;-79
2023/06/13 05:33:23;;;;;;;0.70;0.50;;;20.00;99.90;;;;;;4955318;28;20189;-82
2023/06/13 05:35:54;;;;;;;1.15;0.60;;;19.90;99.90;;;;;;4955306;28;20193;-81
2023/06/13 05:38:25;;;;;;;0.63;0.52;;;19.90;99.90;;;;;;4954996;28;20196;-78
2023/06/13 05:40:56;;;;;;;0.77;0.50;;;19.90;99.90;;;;;;4955376;28;20216;-80
2023/06/13 05:43:27;;;;;;;1.13;0.60;;;19.90;99.90;;;;;;4953574;29;20300;-78
2023/06/13 05:46:00;;;;;;;1.77;0.50;;;19.90;99.90;;;;;;4954992;28;20193;-81
2023/06/13 05:48:31;;;;;;;1.48;0.60;;;19.80;99.90;;;;;;4954947;28;20637;-81
2023/06/13 05:51:05;;;;;;;0.90;0.63;;;19.80;99.90;;;;;;4955119;28;20637;-79
2023/06/13 05:53:36;;;;;;;1.55;0.50;;;19.80;99.90;;;;;;4954918;28;20602;-81
2023/06/13 05:56:08;;;;;;;1.02;0.65;;;19.80;99.90;;;;;;4955241;28;20193;-79
2023/06/13 05:58:39;;;;;;;0.65;0.50;;;19.70;99.90;;;;;;4955266;28;20204;-82
2023/06/13 06:01:12;;;;;;;0.90;0.55;;;19.70;99.90;;;;;;4954436;28;20248;-82
2023/06/13 06:03:43;;;;;;;0.55;0.50;;;19.70;99.90;;;;;;4954743;28;20275;-84
2023/06/13 06:06:14;;;;;;;1.00;0.70;;;19.60;99.90;;;;;;4954812;28;20571;-81
2023/06/13 06:08:45;;;;;;;0.90;0.70;;;19.60;99.90;;;;;;4954750;28;20201;-82
2023/06/13 06:11:16;;;;;;;1.23;0.70;;;19.60;99.90;;;;;;4954471;28;20193;-82
2023/06/13 06:13:47;;;;;;;0.93;0.70;;;19.50;99.90;;;;;;4955645;28;20193;-78
2023/06/13 06:16:20;;;;;;;0.82;0.75;;;19.50;99.90;;;;;;4958229;28;20667;-83
2023/06/13 06:18:53;;;;;;;3.22;1.08;;;19.40;99.90;;;;;;4958192;28;20193;-81
2023/06/13 06:21:24;;;;;;;1.40;0.63;;;19.30;99.90;;;;;;4957955;28;20311;-80
2023/06/13 06:23:55;;;;;;;1.17;0.80;;;19.30;99.90;;;;;;4958114;28;20197;-77
2023/06/13 06:26:27;;;;;;;0.77;0.70;;;19.20;99.90;;;;;;4958233;28;20197;-81
2023/06/13 06:28:58;;;;;;;0.60;0.60;;;19.10;99.90;;;;;;4957976;28;20196;-82
2023/06/13 06:31:31;;;;;;;1.55;0.70;;;19.00;99.90;;;;;;4957986;28;20211;-78
2023/06/13 06:34:02;;;;;;;0.77;0.60;;;18.90;99.90;;;;;;4957939;28;20241;-77
2023/06/13 06:36:33;;;;;;;0.80;0.50;;;18.80;99.90;;;;;;4957935;28;20198;-78
2023/06/13 06:39:04;;;;;;;0.50;0.50;;;18.70;99.90;;;;;;4958085;28;20197;-78
2023/06/13 06:41:36;;;;;;;1.52;0.80;;;18.70;99.90;;;;;;4957539;28;20225;-82
2023/06/13 06:44:07;;;;;;;0.80;0.70;;;18.60;99.90;;;;;;4958230;28;20649;-79
2023/06/13 06:46:40;;;;;;;0.80;0.50;;;18.50;99.90;;;;;;4957692;28;20193;-81
2023/06/13 06:49:11;;;;;;;1.17;0.70;;;18.50;99.90;;;;;;4957669;28;20201;-80
2023/06/13 06:51:42;;;;;;;0.93;0.88;;;18.40;99.90;;;;;;4957573;28;20228;-77
2023/06/13 06:54:13;;;;;;;1.13;0.80;;;18.30;99.90;;;;;;4957733;28;20215;-78
2023/06/13 06:56:44;;;;;;;1.00;0.90;;;18.20;99.90;;;;;;4957468;28;20200;-81
2023/06/13 06:59:15;;;;;;;0.68;0.68;;;18.10;99.90;;;;;;4957456;28;20194;-77
2023/06/13 07:01:48;;;;;;;1.25;0.68;;;18.00;99.90;;;;;;4957227;28;20241;-78
2023/06/13 07:04:19;;;;;;;1.13;0.80;;;17.90;99.90;;;;;;4957395;28;20283;-77
2023/06/13 07:06:50;;;;;;;1.35;0.82;;;17.90;99.90;;;;;;4957347;28;20199;-77
2023/06/13 07:09:21;;;;;;;0.70;0.68;;;17.80;99.90;;;;;;4957112;28;20189;-78
2023/06/13 07:11:56;;;;;;;1.60;0.80;;;17.70;99.90;;;;;;4957167;28;20201;-82
2023/06/13 07:14:28;;;;;;;2.10;0.80;;;17.60;99.90;;;;;;4957196;28;20189;-77
2023/06/13 07:17:01;;;;;;;1.10;0.77;;;17.50;99.90;;;;;;4957671;28;20197;-82
2023/06/13 07:19:32;;;;;;;2.13;0.80;;;17.50;99.90;;;;;;4957092;28;20534;-81
2023/06/13 07:22:04;;;;;;;1.23;0.70;;;17.40;99.90;;;;;;4956991;28;20229;-77
2023/06/13 07:24:35;;;;;;;1.08;0.70;;;17.30;99.90;;;;;;4956690;28;20205;-76
2023/06/13 07:27:07;;;;;;;2.88;1.10;;;17.30;99.90;;;;;;4957030;28;20193;-77
2023/06/13 07:29:38;;;;;;;3.38;0.90;;;17.20;99.90;;;;;;4957007;28;20304;-77
2023/06/13 07:32:12;;;;;;;2.90;1.20;;;17.20;99.90;;;;;;4956779;28;20203;-77
2023/06/13 07:34:43;;;;;;;1.10;1.00;;;17.10;99.90;;;;;;4956783;28;20205;-77
2023/06/13 07:37:14;;;;;;;2.10;1.00;;;17.10;99.90;;;;;;4957579;28;20372;-78
2023/06/13 07:39:45;;;;;;;2.28;1.10;;;17.00;99.90;;;;;;4956589;28;20193;-79
2023/06/13 07:42:16;;;;;;;1.48;0.90;;;17.00;99.90;;;;;;4956869;28;20220;-81
2023/06/13 07:44:47;;;;;;;2.22;0.93;;;17.00;99.90;;;;;;4956730;28;20204;-76
2023/06/13 07:47:20;;;;;;;2.38;0.90;;;16.90;99.90;;;;;;4956617;28;20197;-79
2023/06/13 07:49:52;;;;;;;2.03;1.02;;;16.90;99.90;;;;;;4956595;28;20207;-77
2023/06/13 07:52:23;;;;;;;2.08;1.10;;;16.80;99.90;;;;;;4956300;28;20197;-77
2023/06/13 07:54:54;;;;;;;1.33;0.90;;;16.80;99.90;;;;;;4956484;28;20200;-81
2023/06/13 07:57:25;;;;;;;1.73;1.00;;;16.70;99.90;;;;;;4956741;28;20201;-81
2023/06/13 07:59:57;;;;;;;2.25;1.50;;;16.70;99.90;;;;;;4956728;28;20192;-77
2023/06/13 08:02:34;;;;;;;2.92;1.10;;;16.70;99.90;;;;;;4956225;28;20396;-76
2023/06/13 08:05:06;;;;;;;1.92;1.15;;;16.70;99.90;;;;;;4956204;28;20203;-78
2023/06/13 08:07:37;;;;;;;1.73;1.52;;;16.60;99.90;;;;;;4956156;28;20216;-77
2023/06/13 08:10:09;;;;;;;3.25;1.48;;;16.60;99.90;;;;;;4956405;28;20193;-77
2023/06/13 08:12:41;;;;;;;1.65;1.25;;;16.60;99.90;;;;;;4956086;28;20657;-77
2023/06/13 08:15:12;;;;;;;1.25;1.10;;;16.50;99.90;;;;;;4961145;28;20201;-77
2023/06/13 08:17:45;;;;;;;1.63;1.17;;;16.50;99.90;;;;;;4956108;28;20195;-80
2023/06/13 08:20:17;;;;;;;1.10;1.00;;;16.50;99.90;;;;;;4974558;28;20201;-77
2023/06/13 08:22:48;;;;;;;2.10;1.10;;;16.50;99.90;;;;;;4973745;28;20220;-77
2023/06/13 08:25:19;;;;;;;2.53;1.10;;;16.50;99.90;;;;;;4975860;28;20299;-78
2023/06/13 08:27:50;;;;;;;1.95;1.20;;;16.50;99.90;;;;;;4981027;28;20706;-78
2023/06/13 08:30:23;;;;;;;2.78;1.30;;;16.50;99.90;;;;;;4976090;28;20192;-78
2023/06/13 08:32:56;;;;;;;3.00;1.50;;;16.50;99.90;;;;;;4990831;28;20606;-80
2023/06/13 08:35:27;;;;;;;1.85;1.55;;;16.50;99.90;;;;;;4974919;28;20558;-81
2023/06/13 08:37:58;;;;;;;2.47;1.55;;;16.50;99.90;;;;;;4970791;28;20208;-77
2023/06/13 08:40:29;;;;;;;2.97;1.55;;;16.50;99.90;;;;;;4956009;28;20260;-80
2023/06/13 08:43:02;;;;;;;2.35;1.48;;;16.50;99.90;;;;;;4965147;28;20682;-81
2023/06/13 08:45:33;;;;;;;3.00;1.70;;;16.50;99.90;;;;;;4987197;28;20266;-81
2023/06/13 08:48:06;;;;;;;3.72;1.52;;;16.60;99.90;;;;;;4974301;28;20694;-81
2023/06/13 08:50:37;;;;;;;2.78;1.38;;;16.70;99.90;;;;;;4974772;28;20192;-79
2023/06/13 08:53:09;;;;;;;2.83;1.45;;;16.70;99.90;;;;;;4973520;28;20239;-77
2023/06/13 08:55:43;;;;;;;2.17;1.50;;;16.70;99.90;;;;;;4960507;28;20228;-77
2023/06/13 08:58:17;;;;;;;2.30;1.38;;;16.60;99.90;;;;;;4977299;28;20234;-80
2023/06/13 09:00:50;;;;;;;1.70;1.27;;;16.60;99.90;;;;;;4967842;28;20231;-79
2023/06/13 09:03:25;;;;;;;2.03;1.15;;;16.50;99.90;;;;;;4962008;28;20210;-78
2023/06/13 09:05:56;;;;;;;1.45;1.20;;;16.50;99.90;;;;;;4974218;28;20596;-78
2023/06/13 09:08:30;;;;;;;2.38;1.40;;;16.40;99.90;;;;;;4972709;28;20570;-77
2023/06/13 09:11:02;;;;;;;2.50;1.20;;;16.40;99.90;;;;;;4968449;28;20204;-78
2023/06/13 09:13:34;;;;;;;1.73;1.30;;;16.30;99.90;;;;;;4964262;28;20211;-81
2023/06/13 09:16:05;;;;;;;2.33;1.30;;;16.30;99.90;;;;;;4972829;28;20618;-79
2023/06/13 09:18:43;;;;;;;1.27;1.10;;;16.20;99.90;;;;;;4970973;28;20208;-79
2023/06/13 09:21:14;;;;;;;1.95;1.35;;;16.20;99.90;;;;;;4971125;28;20306;-78
2023/06/13 09:23:45;;;;;;;5.35;1.38;;;16.10;99.90;;;;;;4965169;28;20204;-81
2023/06/13 09:26:18;;;;;;;1.38;1.13;;;16.10;99.90;;;;;;4979297;28;20204;-79
2023/06/13 09:28:49;;;;;;;3.17;1.50;;;16.00;99.90;;;;;;4972483;28;20204;-78
2023/06/13 09:31:21;;;;;;;4.47;1.83;;;15.90;99.90;;;;;;4973868;28;20204;-80
2023/06/13 09:33:54;;;;;;;3.70;1.58;;;15.80;99.90;;;;;;4973357;28;20283;-81
2023/06/13 09:36:26;;;;;;;1.88;1.30;;;15.70;99.90;;;;;;4973917;28;20204;-80
2023/06/13 09:38:57;;;;;;;2.05;1.40;;;15.70;99.90;;;;;;4973359;28;20204;-79
2023/06/13 09:41:31;;;;;;;2.78;1.48;;;15.60;99.90;;;;;;4973956;28;20228;-77
2023/06/13 09:44:06;;;;;;;3.08;1.35;;;15.40;99.90;;;;;;4974119;28;20288;-79
2023/06/13 09:46:39;;;;;;;2.13;1.45;;;15.40;99.90;;;;;;4973897;28;20262;-82
2023/06/13 09:49:12;;;;;;;3.83;1.90;;;15.30;99.90;;;;;;4976211;28;20201;-81
2023/06/13 09:51:45;;;;;;;4.05;1.92;;;15.30;99.90;;;;;;4977769;28;20199;-79
2023/06/13 09:54:16;;;;;;;3.70;1.90;;;15.30;99.90;;;;;;4976801;28;20214;-78
2023/06/13 09:56:48;;;;;;;3.47;1.85;;;15.30;99.90;;;;;;4977692;28;20196;-80
2023/06/13 09:59:20;;;;;;;4.55;2.10;;;15.30;99.90;;;;;;4977051;28;20202;-77
2023/06/13 10:01:51;;;;;;;4.75;2.10;;;15.30;99.90;;;;;;4977584;28;20243;-80
2023/06/13 10:04:25;;;;;;;2.92;1.90;;;15.20;99.90;;;;;;4975095;28;20207;-78
2023/06/13 10:06:56;;;;;;;4.97;2.80;;;15.10;99.90;;;;;;4977500;28;20204;-79
2023/06/13 10:09:27;;;;;;;3.25;2.55;;;15.00;99.90;;;;;;4965608;28;20196;-80
2023/06/13 10:12:01;;;;;;;3.40;2.10;;;15.00;99.90;;;;;;4977167;28;20287;-78
2023/06/13 10:14:36;;;;;;;4.95;2.13;;;15.00;99.90;;;;;;4976325;28;20235;-77
2023/06/13 10:17:11;;;;;;;3.92;2.30;;;15.00;99.90;;;;;;4976544;28;20623;-80
2023/06/13 10:19:45;;;;;;;5.03;2.63;;;15.00;99.90;;;;;;4975785;28;20188;-77
2023/06/13 10:22:17;;;;;;;3.20;2.40;;;15.00;99.90;;;;;;4975445;28;20593;-77
2023/06/13 10:24:51;;;;;;;3.00;2.00;;;15.00;99.90;;;;;;4965052;28;20204;-78
2023/06/13 10:27:24;;;;;;;3.97;1.88;;;15.00;99.90;;;;;;4971700;28;20192;-77
2023/06/13 10:30:25;;;;;;;3.40;1.60;;;14.90;99.90;;;;;;4973390;28;20204;-78
2023/06/13 10:33:25;;;;;;;2.67;1.70;;;14.90;99.90;;;;;;4975722;28;20639;-77
2023/06/13 10:36:14;;;;;;;1.98;1.55;;;14.90;99.90;;;;;;4977249;28;20231;-80
2023/06/13 10:39:21;;;;;;;1.70;1.50;;;15.00;99.90;;;;;;4975914;28;20204;-77
2023/06/13 10:42:18;;;;;;;1.90;1.70;;;15.00;99.90;;;;;;4977079;28;20219;-80
2023/06/13 10:44:58;;;;;;;1.42;1.30;;;15.00;99.90;;;;;;4955008;29;20208;-79
2023/06/13 10:47:32;;;;;;;2.10;1.50;;;15.00;99.90;;;;;;4957670;28;20204;-81
2023/06/13 10:50:04;;;;;;;2.08;1.50;;;15.00;99.90;;;;;;4991427;28;20198;-77
2023/06/13 10:52:37;;;;;;;3.00;1.80;;;15.00;99.90;;;;;;4996415;28;20640;-77
2023/06/13 10:55:08;;;;;;;3.78;1.90;;;15.10;99.90;;;;;;4978034;28;20640;-80
2023/06/13 10:57:53;;;;;;;2.65;1.73;;;15.00;99.90;;;;;;4977053;28;20199;-82
2023/06/13 11:00:31;;;;;;;2.47;1.40;;;15.00;99.90;;;;;;4976548;28;20193;-76
2023/06/13 11:03:06;;;;;;;2.35;1.48;;;15.00;99.90;;;;;;4976530;28;20251;-77
2023/06/13 11:05:40;;;;;;;3.05;1.40;;;15.00;99.90;;;;;;4976781;28;20583;-77
2023/06/13 11:08:16;;;;;;;3.38;1.58;;;15.00;99.90;;;;;;4977043;28;20192;-77
2023/06/13 11:10:49;;;;;;;1.77;1.30;;;14.90;99.90;;;;;;4974183;28;20209;-78
2023/06/13 11:13:23;;;;;;;2.83;1.63;;;14.90;99.90;;;;;;4957457;29;20590;-77
2023/06/13 11:15:57;;;;;;;3.50;1.48;;;14.90;99.90;;;;;;4957145;28;20262;-77
2023/06/13 11:18:36;;;;;;;1.70;1.30;;;14.80;99.90;;;;;;4957304;28;20203;-77
2023/06/13 11:21:09;;;;;;;1.63;1.10;;;14.80;99.90;;;;;;4957058;28;20193;-78
2023/06/13 11:23:51;;;;;;;3.72;1.60;;;14.80;99.90;;;;;;4957098;28;20220;-77
2023/06/13 11:26:22;;;;;;;2.40;1.42;;;14.70;99.90;;;;;;4987166;28;20196;-77
2023/06/13 11:28:57;;;;;;;3.15;1.73;;;14.70;99.90;;;;;;4972403;28;20672;-78
2023/06/13 11:31:31;;;;;;;4.40;1.80;;;14.70;99.90;;;;;;4956729;28;20192;-77
2023/06/13 11:34:04;;;;;;;2.13;1.30;;;14.70;99.90;;;;;;4957650;28;20200;-80
2023/06/13 11:36:39;;;;;;;3.47;1.40;;;14.60;99.90;;;;;;4956954;28;20704;-79
2023/06/13 11:39:14;;;;;;;2.03;1.40;;;14.60;99.90;;;;;;4956978;28;20199;-78
2023/06/13 11:41:46;;;;;;;5.15;1.80;;;14.60;99.90;;;;;;4956633;28;20195;-77
2023/06/13 11:44:17;;;;;;;3.47;2.00;;;14.50;99.90;;;;;;4956498;28;20593;-77
2023/06/13 11:46:49;;;;;;;3.95;2.22;;;14.50;99.90;;;;;;4957201;28;20230;-77
2023/06/13 11:49:21;;;;;;;3.10;2.10;;;14.50;99.90;;;;;;4956579;28;20197;-81
2023/06/13 11:51:52;;;;;;;4.45;2.50;;;14.40;99.90;;;;;;4956463;28;20197;-77
2023/06/13 11:54:32;;;;;;;4.13;2.17;;;14.40;99.90;;;;;;4956511;28;20192;-77
2023/06/13 11:57:03;;;;;;;3.33;1.92;;;14.30;99.90;;;;;;4956482;28;20203;-77
2023/06/13 11:59:34;;;;;;;4.15;1.80;;;14.30;99.90;;;;;;4956642;29;20193;-77
2023/06/13 12:02:06;;;;;;;3.50;1.20;;;14.30;99.90;;;;;;4956538;28;20241;-77
2023/06/13 12:04:39;;;;;;;1.25;1.10;;;14.20;99.90;;;;;;4956450;28;20235;-77
2023/06/13 12:07:13;;;;;;;1.42;1.20;;;14.20;99.90;;;;;;4956340;28;20739;-77
2023/06/13 12:09:48;;;;;;;1.90;1.02;;;14.20;99.90;;;;;;4956377;28;20203;-77
2023/06/13 12:12:20;;;;;;;1.25;1.00;;;14.10;99.90;;;;;;4955520;28;20232;-77
2023/06/13 12:14:57;;;;;;;1.63;1.10;;;14.10;99.90;;;;;;4955939;28;20193;-78
2023/06/13 12:17:29;;;;;;;1.85;1.23;;;14.10;99.90;;;;;;4956140;28;20657;-80
2023/06/13 12:20:11;;;;;;;3.28;1.88;;;14.10;99.90;;;;;;4956479;28;20209;-79
2023/06/13 12:22:43;;;;;;;4.57;2.33;;;14.10;99.90;;;;;;4955980;28;20223;-81
2023/06/13 12:25:17;;;;;;;2.92;1.85;;;14.00;99.90;;;;;;4968018;28;20196;-77
2023/06/13 12:27:51;;;;;;;4.25;2.05;;;14.00;99.90;;;;;;4994429;28;20558;-81
2023/06/13 12:30:22;;;;;;;3.42;2.00;;;13.90;99.90;;;;;;4994552;28;20192;-77
2023/06/13 12:32:56;;;;;;;3.13;1.67;;;13.90;99.90;;;;;;4994617;28;20187;-77
2023/06/13 12:35:29;;;;;;;2.13;1.52;;;13.90;99.90;;;;;;4994327;28;20242;-77
2023/06/13 12:38:02;;;;;;;2.30;1.60;;;13.80;99.90;;;;;;4955863;28;20641;-77
2023/06/13 12:40:38;;;;;;;1.85;1.30;;;13.80;99.90;;;;;;4955653;28;20228;-77
2023/06/13 12:43:10;;;;;;;1.52;1.17;;;13.80;99.90;;;;;;4955457;28;20224;-77
2023/06/13 12:45:44;;;;;;;3.33;1.48;;;13.80;99.90;;;;;;4956394;28;20189;-78
2023/06/13 12:48:20;;;;;;;1.42;1.23;;;13.80;99.90;;;;;;4955605;28;20192;-77
2023/06/13 12:50:51;;;;;;;1.65;1.20;;;13.80;99.90;;;;;;4955542;28;20193;-78
2023/06/13 12:53:23;;;;;;;2.95;1.40;;;13.80;99.90;;;;;;4962602;28;20214;-80
2023/06/13 12:55:57;;;;;;;3.40;1.50;;;13.70;99.90;;;;;;4974746;28;20199;-77
2023/06/13 12:58:38;;;;;;;4.50;2.50;;;13.60;99.90;;;;;;4974622;28;20283;-77
2023/06/13 13:01:10;;;;;;;8.77;3.30;;;13.60;99.90;;;;;;4980158;28;20225;-77
2023/06/13 13:03:41;;;;;;;7.90;3.67;;;13.60;99.90;;;;;;4994093;28;20219;-78
2023/06/13 13:06:12;;;;;;;6.47;2.67;;;13.60;99.90;;;;;;4994308;28;20215;-79
2023/06/13 13:08:43;;;;;;;5.43;2.65;;;13.50;99.90;;;;;;4993970;28;20192;-77
2023/06/13 13:11:16;;;;;;;4.78;2.70;;;13.50;99.90;;;;;;4978876;28;20212;-79
2023/06/13 13:13:47;;;;;;;6.38;2.78;;;13.50;99.90;;;;;;4974507;28;20592;-79
2023/06/13 13:16:19;;;;;;;3.35;2.20;;;13.40;99.90;;;;;;4974487;28;20196;-77